Terminal Aerodrome Forecast
Issued by NWS

Current Version | Previous Version | Graphics & Text | Print | Product List | Glossary On
Versions: 1 2 3 4 5 6 7 8 9 10 11 12 13 14 15 16 17 18
000
FTUS41 KILN 041000 AAB
TAFLUK
TAF AMD
KLUK 041003Z 0410/0506 07004KT 6SM BR OVC070
      TEMPO 0410/0412 2SM BR
     FM041300 01004KT P6SM FEW040 SCT080
     FM041800 34006KT P6SM SCT040
     FM050000 VRB03KT P6SM FEW040
     FM050300 00000KT 4SM BR SKC=

USA.gov is the U.S. government's official web portal to all federal, state and local government web resources and services.